Time;durP1;ratioP1;P1;durP2;ratioP2;P2;SDS_P1;SDS_P2;PMS_P1;PMS_P2;Temp;Humidity;BMP_temperature;BMP_pressure;BME280_temperature;BME280_humidity;BME280_pressure;Samples;Min_cycle;Max_cycle;Signal;HPM_P1;HPM_P2
2022/12/05 00:01:52;;;;;;;;;;;4.10;99.90;;;;;;5093709;27;19969;-63
2022/12/05 00:04:18;;;;;;;;;;;4.10;99.90;;;;;;5078141;27;19923;-64
2022/12/05 00:06:44;;;;;;;;;;;4.20;99.90;;;;;;5107353;27;19931;-64
2022/12/05 00:09:10;;;;;;;;;;;4.20;99.90;;;;;;5093707;27;19920;-64
2022/12/05 00:11:37;;;;;;;;;;;4.20;99.90;;;;;;5073093;28;20363;-63
2022/12/05 00:14:03;;;;;;;;;;;4.20;99.90;;;;;;5110089;27;20398;-64
2022/12/05 00:16:30;;;;;;;;;;;4.20;99.90;;;;;;5074471;28;19935;-64
2022/12/05 00:18:57;;;;;;;;;;;4.20;99.90;;;;;;5095282;27;19931;-64
2022/12/05 00:21:24;;;;;;;;;;;4.20;99.90;;;;;;5090264;28;20018;-64
2022/12/05 00:23:50;;;;;;;;;;;4.20;99.90;;;;;;5096592;27;21772;-64
2022/12/05 00:26:16;;;;;;;;;;;4.20;99.90;;;;;;5080081;28;20325;-63
2022/12/05 00:28:42;;;;;;;;;;;4.20;99.90;;;;;;5092663;27;19977;-64
2022/12/05 00:31:09;;;;;;;;;;;4.20;99.90;;;;;;5076304;28;19973;-64
2022/12/05 00:33:35;;;;;;;;;;;4.20;99.90;;;;;;5077923;28;19934;-64
2022/12/05 00:36:01;;;;;;;;;;;4.20;99.90;;;;;;5095908;28;20282;-64
2022/12/05 00:38:27;;;;;;;;;;;4.20;99.90;;;;;;5076629;28;19949;-64
2022/12/05 00:40:52;;;;;;;;;;;4.30;99.90;;;;;;5114273;28;20421;-64
2022/12/05 00:43:18;;;;;;;;;;;4.30;99.90;;;;;;5096327;28;19963;-64
2022/12/05 00:45:43;;;;;;;;;;;4.20;99.90;;;;;;5073094;28;20393;-64
2022/12/05 00:48:09;;;;;;;;;;;4.30;99.90;;;;;;5105792;28;19927;-64
2022/12/05 00:50:34;;;;;;;;;;;4.30;99.90;;;;;;5071280;28;19928;-64
2022/12/05 00:53:00;;;;;;;;;;;4.30;99.90;;;;;;5072509;28;20397;-63
2022/12/05 00:55:25;;;;;;;;;;;4.30;99.90;;;;;;5090831;28;19920;-64
2022/12/05 00:57:50;;;;;;;;;;;4.30;99.90;;;;;;5110295;28;20374;-63
2022/12/05 01:00:16;;;;;;;;;;;4.40;99.90;;;;;;5093186;28;19982;-63
2022/12/05 01:02:42;;;;;;;;;;;4.40;99.90;;;;;;5094666;28;19924;-63
2022/12/05 01:05:07;;;;;;;;;;;4.40;99.90;;;;;;5109314;27;19924;-63
2022/12/05 01:07:33;;;;;;;;;;;4.40;99.90;;;;;;5076794;28;20083;-63
2022/12/05 01:09:58;;;;;;;;;;;4.40;99.90;;;;;;5097475;27;20343;-63
2022/12/05 01:12:24;;;;;;;;;;;4.40;99.90;;;;;;5107657;27;19920;-62
2022/12/05 01:14:49;;;;;;;;;;;4.40;99.90;;;;;;5108354;27;20003;-63
2022/12/05 01:17:15;;;;;;;;;;;4.50;99.90;;;;;;5077027;27;20034;-62
2022/12/05 01:19:40;;;;;;;;;;;4.50;99.90;;;;;;5096852;27;20377;-63
2022/12/05 01:22:06;;;;;;;;;;;4.50;99.90;;;;;;5080767;27;19934;-63
2022/12/05 01:24:31;;;;;;;;;;;4.50;99.90;;;;;;5111098;27;20432;-63
2022/12/05 01:26:57;;;;;;;;;;;4.50;99.90;;;;;;5095315;27;19927;-63
2022/12/05 01:29:23;;;;;;;;;;;4.50;99.90;;;;;;5076534;28;19927;-62
2022/12/05 01:31:48;;;;;;;;;;;4.50;99.90;;;;;;5081196;27;20301;-63
2022/12/05 01:34:15;;;;;;;;;;;4.50;99.90;;;;;;5095636;27;19934;-63
2022/12/05 01:36:40;;;;;;;;;;;4.60;99.90;;;;;;5097057;27;19957;-63
2022/12/05 01:39:07;;;;;;;;;;;4.50;99.90;;;;;;5114582;27;19920;-63
2022/12/05 01:41:34;;;;;;;;;;;4.60;99.90;;;;;;5096779;27;19920;-63
2022/12/05 01:44:04;;;;;;;;;;;4.60;99.90;;;;;;5082373;28;20031;-63
2022/12/05 01:46:31;;;;;;;;;;;4.60;99.90;;;;;;5093526;27;19943;-63
2022/12/05 01:49:17;;;;;;;;;;;4.60;99.90;;;;;;5080430;28;19920;-63
2022/12/05 01:51:45;;;;;;;;;;;4.60;99.90;;;;;;5112228;27;19924;-64
2022/12/05 01:54:10;;;;;;;;;;;4.50;99.90;;;;;;5113353;27;19927;-63
2022/12/05 01:56:36;;;;;;;;;;;4.60;99.90;;;;;;5095632;28;19927;-63
2022/12/05 01:59:04;;;;;;;;;;;4.60;99.90;;;;;;5098656;27;19941;-63
2022/12/05 02:01:29;;;;;;;;;;;4.60;99.90;;;;;;5075614;27;20011;-63
2022/12/05 02:03:56;;;;;;;;;;;4.60;99.90;;;;;;5080582;28;20006;-63
2022/12/05 02:06:22;;;;;;;;;;;4.60;99.90;;;;;;5077901;27;19920;-63
2022/12/05 02:08:48;;;;;;;;;;;4.60;99.90;;;;;;5094435;27;19927;-63
2022/12/05 02:11:14;;;;;;;;;;;4.60;99.90;;;;;;5110764;27;20842;-64
2022/12/05 02:13:49;;;;;;;;;;;4.60;99.90;;;;;;5092018;27;19985;-63
2022/12/05 02:16:17;;;;;;;;;;;4.60;99.90;;;;;;5081415;28;19920;-64
2022/12/05 02:18:42;;;;;;;;;;;4.70;99.90;;;;;;5096490;27;19923;-63
2022/12/05 02:21:19;;;;;;;;;;;4.70;99.90;;;;;;5094954;28;20401;-64
2022/12/05 02:24:04;;;;;;;;;;;4.70;99.90;;;;;;5077094;27;19928;-64
2022/12/05 02:26:48;;;;;;;;;;;4.70;99.90;;;;;;5085378;28;19924;-63
2022/12/05 02:29:14;;;;;;;;;;;4.70;99.90;;;;;;5055560;28;19931;-63
2022/12/05 02:31:58;;;;;;;;;;;4.70;99.90;;;;;;5074713;28;19921;-63
2022/12/05 02:34:28;;;;;;;;;;;4.70;99.90;;;;;;5074518;28;19928;-64
2022/12/05 02:36:56;;;;;;;;;;;4.70;99.90;;;;;;5061665;27;19923;-64
2022/12/05 02:39:40;;;;;;;;;;;4.70;99.90;;;;;;5076719;27;20377;-63
2022/12/05 02:42:20;;;;;;;;;;;4.70;99.90;;;;;;5108899;27;19931;-63
2022/12/05 02:44:48;;;;;;;;;;;4.70;99.90;;;;;;5076727;28;20016;-63
2022/12/05 02:47:16;;;;;;;;;;;4.70;99.90;;;;;;5095566;28;19924;-64
2022/12/05 02:49:42;;;;;;;;;;;4.80;99.90;;;;;;5098150;27;20282;-63
2022/12/05 02:52:08;;;;;;;;;;;4.70;99.90;;;;;;5092172;27;19920;-64
2022/12/05 02:54:36;;;;;;;;;;;4.70;99.90;;;;;;5091615;27;19940;-63
2022/12/05 02:57:03;;;;;;;;;;;4.70;99.90;;;;;;5074298;28;19920;-64
2022/12/05 02:59:28;;;;;;;;;;;4.70;99.90;;;;;;5078781;27;19920;-64
2022/12/05 03:01:54;;;;;;;;;;;4.70;99.90;;;;;;5107352;27;19920;-65
2022/12/05 03:04:20;;;;;;;;;;;4.70;99.90;;;;;;5080758;28;19989;-63
2022/12/05 03:06:52;;;;;;;;;;;4.70;99.90;;;;;;5091539;28;20271;-63
2022/12/05 03:09:23;;;;;;;;;;;4.80;99.90;;;;;;5087753;28;19924;-63
2022/12/05 03:11:51;;;;;;;;;;;4.70;99.90;;;;;;5091002;28;20060;-64
2022/12/05 03:14:26;;;;;;;;;;;4.70;99.90;;;;;;5126375;27;20343;-63
2022/12/05 03:16:52;;;;;;;;;;;4.80;99.90;;;;;;5090863;27;20306;-64
2022/12/05 03:19:36;;;;;;;;;;;4.70;99.90;;;;;;5092261;27;19949;-64
2022/12/05 03:22:13;;;;;;;;;;;4.70;99.90;;;;;;5104569;27;19919;-63
2022/12/05 03:24:39;;;;;;;;;;;4.80;99.90;;;;;;5095699;27;19935;-64
2022/12/05 03:27:24;;;;;;;;;;;4.80;99.90;;;;;;5096133;27;19924;-64
2022/12/05 03:30:06;;;;;;;;;;;4.80;99.90;;;;;;5100615;27;20022;-65
2022/12/05 03:32:41;;;;;;;;;;;4.80;99.90;;;;;;5091528;27;19924;-64
2022/12/05 03:35:06;;;;;;;;;;;4.80;99.90;;;;;;5123465;27;19928;-64
2022/12/05 03:37:47;;;;;;;;;;;4.80;99.90;;;;;;5093058;27;19990;-64
2022/12/05 03:40:25;;;;;;;;;;;4.90;99.90;;;;;;5090449;27;19927;-64
2022/12/05 03:42:55;;;;;;;;;;;4.80;99.90;;;;;;5127999;27;19920;-63
2022/12/05 03:45:24;;;;;;;;;;;4.80;99.90;;;;;;5091365;28;19928;-64
2022/12/05 03:47:53;;;;;;;;;;;4.80;99.90;;;;;;5128233;27;19920;-64
2022/12/05 03:50:24;;;;;;;;;;;4.80;99.90;;;;;;5093395;27;19923;-63
2022/12/05 03:52:58;;;;;;;;;;;4.90;99.90;;;;;;5128254;27;19924;-64
2022/12/05 03:55:26;;;;;;;;;;;4.90;99.90;;;;;;5097651;27;20298;-63
2022/12/05 03:58:04;;;;;;;;;;;4.90;99.90;;;;;;5122698;27;20294;-64
2022/12/05 04:00:33;;;;;;;;;;;4.90;99.90;;;;;;5090176;27;19923;-65
2022/12/05 04:03:08;;;;;;;;;;;4.90;99.90;;;;;;5121044;27;19920;-63
2022/12/05 04:05:41;;;;;;;;;;;4.90;99.90;;;;;;5095955;28;19977;-64
2022/12/05 04:08:10;;;;;;;;;;;5.00;99.90;;;;;;5126816;27;20697;-63
2022/12/05 04:10:47;;;;;;;;;;;5.00;99.90;;;;;;5078606;28;20379;-64
2022/12/05 04:13:18;;;;;;;;;;;5.00;99.90;;;;;;5075042;28;19973;-64
2022/12/05 04:18:33;;;;;;;;;;;5.10;99.90;;;;;;5105389;27;19924;-64
2022/12/05 04:25:31;;;;;;;;;;;5.10;99.90;;;;;;5073455;28;19966;-64
2022/12/05 04:26:30;;;;;;;;;;;5.10;99.90;;;;;;5073263;28;19927;-63
2022/12/05 04:29:18;;;;;;;;;;;5.10;99.90;;;;;;5091254;28;19920;-64
2022/12/05 04:31:47;;;;;;;;;;;5.10;99.90;;;;;;5074979;28;19968;-63
2022/12/05 04:34:14;;;;;;;;;;;5.00;99.90;;;;;;5074617;28;19989;-64
2022/12/05 04:36:45;;;;;;;;;;;5.10;99.90;;;;;;5078653;28;19920;-64
2022/12/05 04:39:10;;;;;;;;;;;5.10;99.90;;;;;;5096084;27;21359;-64
2022/12/05 04:41:38;;;;;;;;;;;5.10;99.90;;;;;;5076046;28;20014;-64
2022/12/05 04:44:09;;;;;;;;;;;5.10;99.90;;;;;;5092403;28;19920;-63
2022/12/05 04:46:35;;;;;;;;;;;5.20;99.90;;;;;;5092884;28;19934;-64
2022/12/05 04:49:02;;;;;;;;;;;5.20;99.90;;;;;;5096718;28;19965;-64
2022/12/05 04:51:33;;;;;;;;;;;5.10;99.90;;;;;;5073337;28;19924;-64
2022/12/05 04:54:06;;;;;;;;;;;5.20;99.90;;;;;;5107287;28;19975;-63
2022/12/05 04:56:33;;;;;;;;;;;5.10;99.90;;;;;;5074157;28;19920;-64
2022/12/05 04:58:58;;;;;;;;;;;5.10;99.90;;;;;;5093931;28;19927;-63
2022/12/05 05:01:29;;;;;;;;;;;5.10;99.90;;;;;;5082716;28;19924;-63
2022/12/05 05:04:17;;;;;;;;;;;5.10;99.90;;;;;;5099059;28;19993;-64
2022/12/05 05:06:43;;;;;;;;;;;5.10;99.90;;;;;;5103598;28;19920;-64
2022/12/05 05:09:09;;;;;;;;;;;5.10;99.90;;;;;;5117584;27;20417;-63
2022/12/05 05:11:35;;;;;;;;;;;5.10;99.90;;;;;;5095636;28;19924;-64
2022/12/05 05:14:00;;;;;;;;;;;5.20;99.90;;;;;;5097616;28;20386;-64
2022/12/05 05:16:27;;;;;;;;;;;5.10;99.90;;;;;;5095585;28;19981;-64
2022/12/05 05:18:53;;;;;;;;;;;5.10;99.90;;;;;;5130055;27;19920;-64
2022/12/05 05:21:23;;;;;;;;;;;5.20;99.90;;;;;;5130378;27;19931;-63
2022/12/05 05:23:49;;;;;;;;;;;5.20;99.90;;;;;;5125322;27;20355;-63
2022/12/05 05:26:15;;;;;;;;;;;5.20;99.90;;;;;;5097586;28;19972;-64
2022/12/05 05:28:41;;;;;;;;;;;5.20;99.90;;;;;;5101312;28;19931;-63
2022/12/05 05:31:06;;;;;;;;;;;5.20;99.90;;;;;;5100956;28;19927;-63
2022/12/05 05:33:32;;;;;;;;;;;5.30;99.90;;;;;;5098402;28;19931;-64
2022/12/05 05:36:02;;;;;;;;;;;5.30;99.90;;;;;;5135742;27;19927;-63
2022/12/05 05:38:28;;;;;;;;;;;5.30;99.90;;;;;;5097663;28;19942;-63
2022/12/05 05:40:53;;;;;;;;;;;5.30;99.90;;;;;;5100367;28;19923;-63
2022/12/05 05:43:19;;;;;;;;;;;5.30;99.90;;;;;;5101555;28;20013;-63
2022/12/05 05:45:44;;;;;;;;;;;5.30;99.90;;;;;;5096657;28;19928;-63
2022/12/05 05:48:10;;;;;;;;;;;5.30;99.90;;;;;;5096692;28;19924;-63
2022/12/05 05:50:35;;;;;;;;;;;5.30;99.90;;;;;;5100310;28;19960;-63
2022/12/05 05:53:01;;;;;;;;;;;5.30;99.90;;;;;;5106799;27;20019;-63
2022/12/05 05:55:26;;;;;;;;;;;5.30;99.90;;;;;;5103606;28;20053;-63
2022/12/05 05:57:52;;;;;;;;;;;5.30;99.90;;;;;;5103382;27;19920;-63
2022/12/05 06:00:17;;;;;;;;;;;5.30;99.90;;;;;;5102365;27;19924;-64
2022/12/05 06:02:43;;;;;;;;;;;5.30;99.90;;;;;;5102604;27;20522;-64
2022/12/05 06:05:08;;;;;;;;;;;5.30;99.90;;;;;;5105167;27;19935;-63
2022/12/05 06:07:34;;;;;;;;;;;5.30;99.90;;;;;;5106555;27;19947;-63
2022/12/05 06:09:59;;;;;;;;;;;5.30;99.90;;;;;;5104647;27;19942;-64
2022/12/05 06:12:25;;;;;;;;;;;5.40;99.90;;;;;;5083559;28;19927;-63
2022/12/05 06:14:51;;;;;;;;;;;5.40;99.90;;;;;;5083307;28;19931;-63
2022/12/05 06:17:16;;;;;;;;;;;5.40;99.90;;;;;;5086835;28;19924;-63
2022/12/05 06:19:42;;;;;;;;;;;5.40;99.90;;;;;;5088059;28;19981;-63
2022/12/05 06:22:08;;;;;;;;;;;5.40;99.90;;;;;;5084637;28;19973;-64
2022/12/05 06:24:33;;;;;;;;;;;5.40;99.90;;;;;;5093082;28;19924;-63
2022/12/05 06:26:58;;;;;;;;;;;5.40;99.90;;;;;;5102779;27;19924;-63
2022/12/05 06:29:24;;;;;;;;;;;5.40;99.90;;;;;;5089286;28;19954;-63
2022/12/05 06:31:50;;;;;;;;;;;5.40;99.90;;;;;;5084380;28;19961;-64
2022/12/05 06:34:16;;;;;;;;;;;5.30;99.90;;;;;;5084326;28;19924;-64
2022/12/05 06:36:41;;;;;;;;;;;5.40;99.90;;;;;;5091490;28;19920;-63
2022/12/05 06:39:07;;;;;;;;;;;5.40;99.90;;;;;;5108181;27;19924;-63
2022/12/05 06:41:33;;;;;;;;;;;5.40;99.90;;;;;;5084479;28;19920;-64
2022/12/05 06:43:59;;;;;;;;;;;5.40;99.90;;;;;;5104324;27;20518;-63
2022/12/05 06:46:25;;;;;;;;;;;5.50;99.90;;;;;;5119991;27;19977;-63
2022/12/05 06:48:54;;;;;;;;;;;5.40;99.90;;;;;;5102248;28;19927;-64
2022/12/05 06:51:20;;;;;;;;;;;5.40;99.90;;;;;;5119507;27;19920;-64
2022/12/05 06:53:45;;;;;;;;;;;5.40;99.90;;;;;;5098880;27;19935;-64
2022/12/05 06:56:13;;;;;;;;;;;5.40;99.90;;;;;;5080234;28;20509;-64
2022/12/05 06:58:39;;;;;;;;;;;5.40;99.90;;;;;;5101876;27;19967;-64
2022/12/05 07:03:51;;;;;;;;;;;5.50;99.90;;;;;;5113097;27;19993;-63
2022/12/05 07:06:17;;;;;;;;;;;5.40;99.90;;;;;;5084015;28;19970;-64
2022/12/05 07:08:42;;;;;;;;;;;5.40;99.90;;;;;;5116570;27;19924;-64
2022/12/05 07:11:08;;;;;;;;;;;5.50;99.90;;;;;;5103607;28;20378;-64
2022/12/05 07:13:33;;;;;;;;;;;5.50;99.90;;;;;;5100172;28;20344;-63
2022/12/05 07:15:59;;;;;;;;;;;5.50;99.90;;;;;;5098367;27;19923;-64
2022/12/05 07:18:25;;;;;;;;;;;5.50;99.90;;;;;;5134328;27;20017;-64
2022/12/05 07:20:58;;;;;;;;;;;5.50;99.90;;;;;;5094293;28;19924;-63
2022/12/05 07:23:23;;;;;;;;;;;5.50;99.90;;;;;;5099522;27;20404;-63
2022/12/05 07:25:49;;;;;;;;;;;5.50;99.90;;;;;;5097018;27;19920;-64
2022/12/05 07:28:14;;;;;;;;;;;5.50;99.90;;;;;;5102592;27;20441;-63
2022/12/05 07:30:40;;;;;;;;;;;5.40;99.90;;;;;;5100858;27;19920;-63
2022/12/05 07:33:05;;;;;;;;;;;5.40;99.90;;;;;;5100067;27;19920;-64
2022/12/05 07:35:30;;;;;;;;;;;5.40;99.90;;;;;;5101768;27;20001;-63
2022/12/05 07:37:56;;;;;;;;;;;5.40;99.90;;;;;;5101177;28;19920;-63
2022/12/05 07:40:22;;;;;;;;;;;5.50;99.90;;;;;;5104909;28;19928;-63
2022/12/05 07:42:48;;;;;;;;;;;5.40;99.90;;;;;;5096367;28;19942;-63
2022/12/05 07:45:13;;;;;;;;;;;5.40;99.90;;;;;;5101372;28;20230;-63
2022/12/05 07:47:39;;;;;;;;;;;5.40;99.90;;;;;;5103729;28;20073;-63
2022/12/05 07:50:04;;;;;;;;;;;5.50;99.90;;;;;;5098688;28;19920;-63
2022/12/05 07:52:30;;;;;;;;;;;5.40;99.90;;;;;;5092286;28;19931;-63
2022/12/05 07:54:57;;;;;;;;;;;5.50;99.90;;;;;;5104741;27;19974;-63
2022/12/05 07:57:22;;;;;;;;;;;5.50;99.90;;;;;;5103640;28;19984;-63
2022/12/05 07:59:47;;;;;;;;;;;5.40;99.90;;;;;;5102053;28;19967;-63
2022/12/05 08:02:13;;;;;;;;;;;5.50;99.90;;;;;;5101044;27;19923;-64
2022/12/05 08:04:39;;;;;;;;;;;5.50;99.90;;;;;;5103125;28;19927;-64
2022/12/05 08:07:04;;;;;;;;;;;5.50;99.90;;;;;;5107971;28;19920;-63
2022/12/05 08:09:30;;;;;;;;;;;5.50;99.90;;;;;;5102781;28;19926;-63
2022/12/05 08:11:55;;;;;;;;;;;5.60;99.90;;;;;;5112336;27;19946;-63
2022/12/05 08:14:21;;;;;;;;;;;5.50;99.90;;;;;;5104095;28;19923;-64
2022/12/05 08:16:46;;;;;;;;;;;5.60;99.90;;;;;;5108662;28;19927;-63
2022/12/05 08:19:12;;;;;;;;;;;5.60;99.90;;;;;;5105244;28;19920;-63
2022/12/05 08:21:38;;;;;;;;;;;5.60;99.90;;;;;;5111457;28;19982;-64
2022/12/05 08:24:04;;;;;;;;;;;5.60;99.90;;;;;;5106003;28;20014;-64
2022/12/05 08:26:30;;;;;;;;;;;5.60;99.90;;;;;;5136102;27;20040;-64
2022/12/05 08:28:57;;;;;;;;;;;5.60;99.90;;;;;;5098428;28;19924;-64
2022/12/05 08:31:23;;;;;;;;;;;5.60;99.90;;;;;;5104958;28;20006;-63
2022/12/05 08:33:50;;;;;;;;;;;5.60;99.90;;;;;;5141469;27;19935;-63
2022/12/05 08:36:16;;;;;;;;;;;5.60;99.90;;;;;;5100020;28;20319;-63
2022/12/05 08:38:42;;;;;;;;;;;5.60;99.90;;;;;;5090895;28;19920;-64
2022/12/05 08:41:09;;;;;;;;;;;5.60;99.90;;;;;;5103740;28;19926;-64
2022/12/05 08:43:35;;;;;;;;;;;5.60;99.90;;;;;;5100898;28;19928;-64
2022/12/05 08:46:00;;;;;;;;;;;5.70;99.90;;;;;;5107244;28;20471;-64
2022/12/05 08:48:27;;;;;;;;;;;5.60;99.90;;;;;;5095020;28;20278;-63
2022/12/05 08:50:53;;;;;;;;;;;5.60;99.90;;;;;;5106600;28;20386;-64
2022/12/05 08:53:18;;;;;;;;;;;5.60;99.90;;;;;;5104503;28;19931;-63
2022/12/05 08:55:47;;;;;;;;;;;5.60;99.90;;;;;;5092699;28;19935;-64
2022/12/05 08:58:12;;;;;;;;;;;5.60;99.90;;;;;;5143210;27;20351;-64
2022/12/05 09:00:38;;;;;;;;;;;5.70;99.90;;;;;;5105321;28;19919;-64
2022/12/05 09:03:04;;;;;;;;;;;5.60;99.90;;;;;;5108581;28;20018;-64
2022/12/05 09:05:29;;;;;;;;;;;5.60;99.90;;;;;;5099740;28;20015;-63
2022/12/05 09:07:55;;;;;;;;;;;5.60;99.90;;;;;;5110462;28;19920;-63
2022/12/05 09:10:21;;;;;;;;;;;5.60;99.90;;;;;;5078246;28;19924;-64
2022/12/05 09:12:46;;;;;;;;;;;5.70;99.90;;;;;;5086668;28;19928;-64
2022/12/05 09:15:12;;;;;;;;;;;5.60;99.90;;;;;;5081875;28;19935;-64
2022/12/05 09:17:38;;;;;;;;;;;5.70;99.90;;;;;;5098092;28;19934;-64
2022/12/05 09:20:04;;;;;;;;;;;5.70;99.90;;;;;;5068724;28;20020;-64
2022/12/05 09:22:30;;;;;;;;;;;5.70;99.90;;;;;;5090719;28;19947;-64
2022/12/05 09:24:55;;;;;;;;;;;5.70;99.90;;;;;;5078789;28;19920;-64
2022/12/05 09:27:21;;;;;;;;;;;5.60;99.90;;;;;;5093301;27;19920;-64
2022/12/05 09:29:46;;;;;;;;;;;5.70;99.90;;;;;;5103963;27;19931;-63
2022/12/05 09:32:12;;;;;;;;;;;5.70;99.90;;;;;;5101378;28;20417;-63
2022/12/05 09:34:37;;;;;;;;;;;5.70;99.90;;;;;;5087008;27;19973;-63
2022/12/05 09:37:04;;;;;;;;;;;5.70;99.90;;;;;;5121009;27;19927;-63
2022/12/05 09:39:30;;;;;;;;;;;5.70;99.90;;;;;;5121176;27;19920;-63
2022/12/05 09:42:03;;;;;;;;;;;5.70;99.90;;;;;;5110664;28;20302;-63
2022/12/05 09:44:38;;;;;;;;;;;5.70;99.90;;;;;;5104164;27;19919;-64
2022/12/05 09:47:22;;;;;;;;;;;5.70;99.90;;;;;;5121207;27;19920;-64
2022/12/05 09:50:08;;;;;;;;;;;5.70;99.90;;;;;;5086463;28;19920;-64
2022/12/05 09:52:35;;;;;;;;;;;5.70;99.90;;;;;;5068996;27;20264;-64
2022/12/05 09:55:03;;;;;;;;;;;5.60;99.90;;;;;;5092319;28;20400;-64
2022/12/05 09:57:32;;;;;;;;;;;5.60;99.90;;;;;;5090398;28;19959;-63
2022/12/05 09:59:59;;;;;;;;;;;5.60;99.90;;;;;;5090706;27;20010;-63
2022/12/05 10:02:34;;;;;;;;;;;5.60;99.90;;;;;;5117926;27;20038;-64
2022/12/05 10:05:05;;;;;;;;;;;5.60;99.90;;;;;;5083506;28;20271;-63
2022/12/05 10:07:39;;;;;;;;;;;5.60;99.90;;;;;;5116356;27;20006;-64
2022/12/05 10:10:26;;;;;;;;;;;5.60;99.90;;;;;;5105071;27;19928;-63
2022/12/05 10:12:55;;;;;;;;;;;5.60;99.90;;;;;;5105926;27;20358;-63
2022/12/05 10:15:47;;;;;;;;;;;5.50;99.90;;;;;;5108315;27;19924;-63
2022/12/05 10:18:31;;;;;;;;;;;5.60;99.90;;;;;;5098131;27;20039;-64
2022/12/05 10:20:57;;;;;;;;;;;5.50;99.90;;;;;;5134495;27;19924;-63
2022/12/05 10:23:44;;;;;;;;;;;5.60;99.90;;;;;;5097135;27;20394;-63
2022/12/05 10:26:11;;;;;;;;;;;5.60;99.90;;;;;;5102936;27;19972;-64
2022/12/05 10:28:40;;;;;;;;;;;5.60;99.90;;;;;;5110496;27;19919;-64
2022/12/05 10:31:11;;;;;;;;;;;5.60;99.90;;;;;;5099240;28;19927;-63
2022/12/05 10:33:39;;;;;;;;;;;5.60;99.90;;;;;;5126749;27;19924;-64
2022/12/05 10:36:14;;;;;;;;;;;5.60;99.90;;;;;;5125746;27;19924;-64
2022/12/05 10:38:40;;;;;;;;;;;5.50;99.90;;;;;;5110156;27;19919;-64
2022/12/05 10:41:07;;;;;;;;;;;5.50;99.90;;;;;;5103830;28;20010;-64
2022/12/05 10:43:33;;;;;;;;;;;5.60;99.90;;;;;;5108950;27;19924;-64
2022/12/05 10:46:00;;;;;;;;;;;5.60;99.90;;;;;;5101630;27;19927;-64
2022/12/05 10:48:26;;;;;;;;;;;5.60;99.90;;;;;;5102634;27;19927;-65
2022/12/05 10:50:53;;;;;;;;;;;5.60;99.90;;;;;;5099159;28;19920;-64
2022/12/05 10:53:26;;;;;;;;;;;5.50;99.90;;;;;;5098264;28;20291;-64
2022/12/05 10:55:52;;;;;;;;;;;5.60;99.90;;;;;;5107962;28;19920;-64
2022/12/05 10:58:21;;;;;;;;;;;5.60;99.90;;;;;;5108052;28;19927;-64
2022/12/05 11:00:48;;;;;;;;;;;5.60;99.90;;;;;;5104083;27;20398;-64
2022/12/05 11:03:29;;;;;;;;;;;5.60;99.90;;;;;;5127689;27;19920;-65
2022/12/05 11:06:01;;;;;;;;;;;5.60;99.90;;;;;;5096483;27;20362;-64
2022/12/05 11:08:31;;;;;;;;;;;5.50;99.90;;;;;;5095886;27;20453;-65
2022/12/05 11:11:04;;;;;;;;;;;5.60;99.90;;;;;;5099800;27;19931;-64
2022/12/05 11:13:31;;;;;;;;;;;5.50;99.90;;;;;;5101613;27;20717;-65
2022/12/05 11:15:56;;;;;;;;;;;5.50;99.90;;;;;;5102132;27;19931;-65
2022/12/05 11:18:27;;;;;;;;;;;5.60;99.90;;;;;;5094740;27;19920;-64
2022/12/05 11:20:53;;;;;;;;;;;5.60;99.90;;;;;;5131714;27;19923;-64
2022/12/05 11:23:29;;;;;;;;;;;5.50;99.90;;;;;;5097605;27;19928;-65
2022/12/05 11:25:55;;;;;;;;;;;5.60;99.90;;;;;;5099381;27;19955;-65
2022/12/05 11:28:22;;;;;;;;;;;5.60;99.90;;;;;;5103640;27;19928;-65
2022/12/05 11:30:59;;;;;;;;;;;5.50;99.90;;;;;;5106741;27;19963;-64
2022/12/05 11:33:26;;;;;;;;;;;5.50;99.90;;;;;;5098048;27;19931;-64
2022/12/05 11:35:53;;;;;;;;;;;5.50;99.90;;;;;;5099398;28;19919;-65
2022/12/05 11:38:20;;;;;;;;;;;5.50;99.90;;;;;;5100259;27;19920;-64
2022/12/05 11:40:53;;;;;;;;;;;5.50;99.90;;;;;;5093725;27;20355;-65
2022/12/05 11:43:18;;;;;;;;;;;5.50;99.90;;;;;;5100421;28;20602;-65
2022/12/05 11:45:56;;;;;;;;;;;5.50;99.90;;;;;;5103876;27;19970;-65
2022/12/05 11:48:41;;;;;;;;;;;5.50;99.90;;;;;;5099604;27;19931;-65
2022/12/05 11:51:14;;;;;;;;;;;5.50;99.90;;;;;;5107224;27;19923;-65
2022/12/05 11:53:49;;;;;;;;;;;5.50;99.90;;;;;;5101531;28;19924;-65
2022/12/05 11:56:20;;;;;;;;;;;5.50;99.90;;;;;;5097537;28;19930;-65
2022/12/05 11:59:03;;;;;;;;;;;5.50;99.90;;;;;;5112410;28;19920;-65
2022/12/05 12:01:43;;;;;;;;;;;5.50;99.90;;;;;;5102791;28;20363;-64
2022/12/05 12:04:12;;;;;;;;;;;5.50;99.90;;;;;;5094974;28;19920;-65
2022/12/05 12:06:40;;;;;;;;;;;5.50;99.90;;;;;;5100765;28;20322;-65
2022/12/05 12:09:14;;;;;;;;;;;5.50;99.90;;;;;;5111576;28;19924;-65
2022/12/05 12:11:52;;;;;;;;;;;5.50;99.90;;;;;;5108399;28;19920;-65
2022/12/05 12:14:18;;;;;;;;;;;5.50;99.90;;;;;;5104180;28;20350;-65
2022/12/05 12:16:49;;;;;;;;;;;5.40;99.90;;;;;;5108798;28;19973;-65
2022/12/05 12:19:33;;;;;;;;;;;5.50;99.90;;;;;;5094148;28;19924;-65
2022/12/05 12:22:02;;;;;;;;;;;5.50;99.90;;;;;;5098762;28;19921;-65
2022/12/05 12:24:27;;;;;;;;;;;5.50;99.90;;;;;;5109950;28;19926;-65
2022/12/05 12:27:01;;;;;;;;;;;5.50;99.90;;;;;;5102975;28;20376;-65
2022/12/05 12:29:37;;;;;;;;;;;5.50;99.90;;;;;;5124982;27;19923;-65
2022/12/05 12:32:15;;;;;;;;;;;5.50;99.90;;;;;;5123731;27;19920;-65
2022/12/05 12:34:40;;;;;;;;;;;5.40;99.90;;;;;;5106170;28;19924;-65
2022/12/05 12:37:26;;;;;;;;;;;5.50;99.90;;;;;;5097283;28;19945;-65
2022/12/05 12:39:54;;;;;;;;;;;5.50;99.90;;;;;;5091991;28;20009;-65
2022/12/05 12:42:20;;;;;;;;;;;5.50;99.90;;;;;;5088554;28;19920;-65
2022/12/05 12:44:45;;;;;;;;;;;5.60;99.90;;;;;;5098774;28;19924;-65
2022/12/05 12:47:14;;;;;;;;;;;5.60;99.90;;;;;;5109627;28;19919;-65
2022/12/05 12:49:39;;;;;;;;;;;5.60;99.90;;;;;;5101331;28;19970;-65
2022/12/05 12:52:12;;;;;;;;;;;5.60;99.90;;;;;;5108662;28;19966;-65
2022/12/05 12:55:07;;;;;;;;;;;5.60;99.90;;;;;;5108808;28;19931;-65
2022/12/05 12:57:35;;;;;;;;;;;5.60;99.90;;;;;;5090662;28;19923;-65
2022/12/05 13:00:11;;;;;;;;;;;5.70;99.90;;;;;;5108184;28;19924;-65
2022/12/05 13:02:42;;;;;;;;;;;5.60;99.90;;;;;;5110442;28;19924;-64
2022/12/05 13:05:17;;;;;;;;;;;5.60;99.90;;;;;;5115228;28;19927;-65
2022/12/05 13:07:48;;;;;;;;;;;5.70;99.90;;;;;;5096554;28;19966;-65
2022/12/05 13:10:25;;;;;;;;;;;5.70;99.90;;;;;;5128934;27;19920;-65
2022/12/05 13:12:53;;;;;;;;;;;5.60;99.90;;;;;;5133172;27;20298;-66
2022/12/05 13:15:21;;;;;;;;;;;5.60;99.90;;;;;;5108568;28;20404;-66
2022/12/05 13:17:47;;;;;;;;;;;5.70;99.90;;;;;;5105731;28;19993;-65
2022/12/05 13:20:18;;;;;;;;;;;5.60;99.90;;;;;;5115085;28;20052;-65
2022/12/05 13:22:44;;;;;;;;;;;5.70;99.90;;;;;;5098116;28;19927;-63
2022/12/05 13:25:13;;;;;;;;;;;5.70;99.90;;;;;;5111218;28;20359;-65
2022/12/05 13:27:41;;;;;;;;;;;5.60;99.90;;;;;;5100842;28;19927;-64
2022/12/05 13:30:16;;;;;;;;;;;5.70;99.90;;;;;;5128765;27;19950;-63
2022/12/05 13:32:42;;;;;;;;;;;5.60;99.90;;;;;;5135284;27;19920;-65
2022/12/05 13:35:09;;;;;;;;;;;5.70;99.90;;;;;;5097436;28;19957;-65
2022/12/05 13:43:11;;;;;;;;;;;5.70;99.90;;;;;;5097781;28;19943;-65
2022/12/05 13:45:37;;;;;;;;;;;5.60;99.90;;;;;;5110955;28;20295;-64
2022/12/05 13:48:07;;;;;;;;;;;5.60;99.90;;;;;;5092123;28;19920;-64
2022/12/05 13:50:40;;;;;;;;;;;5.70;99.90;;;;;;5094522;28;19920;-65
2022/12/05 13:53:18;;;;;;;;;;;5.70;99.90;;;;;;5092423;28;20388;-65
2022/12/05 13:55:54;;;;;;;;;;;5.60;99.90;;;;;;5110738;27;20330;-64
2022/12/05 13:58:23;;;;;;;;;;;5.60;99.90;;;;;;5144307;27;20263;-64
2022/12/05 14:00:49;;;;;;;;;;;5.70;99.90;;;;;;5102177;28;19927;-65
2022/12/05 14:03:18;;;;;;;;;;;5.60;99.90;;;;;;5126512;27;19924;-65
2022/12/05 14:05:51;;;;;;;;;;;5.70;99.90;;;;;;5139447;27;20023;-65
2022/12/05 14:08:29;;;;;;;;;;;5.70;99.90;;;;;;5105079;28;20409;-64
2022/12/05 14:10:54;;;;;;;;;;;5.70;99.90;;;;;;5111477;28;20374;-64
2022/12/05 14:13:20;;;;;;;;;;;5.70;99.90;;;;;;5094105;28;19924;-65
2022/12/05 14:15:47;;;;;;;;;;;5.60;99.90;;;;;;5100332;28;20385;-65
2022/12/05 14:18:17;;;;;;;;;;;5.60;99.90;;;;;;5109113;28;19920;-64
2022/12/05 14:20:48;;;;;;;;;;;5.60;99.90;;;;;;5101453;27;19919;-65
2022/12/05 14:23:32;;;;;;;;;;;5.50;99.90;;;;;;5105429;28;19926;-64
2022/12/05 14:26:13;;;;;;;;;;;5.60;99.90;;;;;;5113158;28;20031;-63
2022/12/05 14:29:02;;;;;;;;;;;5.60;99.90;;;;;;5106806;27;19919;-64
2022/12/05 14:31:46;;;;;;;;;;;5.70;99.90;;;;;;5104337;28;21101;-65
2022/12/05 14:34:12;;;;;;;;;;;5.60;99.90;;;;;;5110524;28;19973;-64
2022/12/05 14:36:39;;;;;;;;;;;5.60;99.90;;;;;;5098225;28;20354;-64
2022/12/05 14:39:31;;;;;;;;;;;5.50;99.90;;;;;;5100744;27;20328;-64
2022/12/05 14:41:59;;;;;;;;;;;5.60;99.90;;;;;;5101955;28;19926;-64
2022/12/05 14:44:30;;;;;;;;;;;5.60;99.90;;;;;;5146963;27;19935;-65
2022/12/05 14:47:02;;;;;;;;;;;5.50;99.90;;;;;;5104533;28;19966;-64
2022/12/05 14:49:46;;;;;;;;;;;5.60;99.90;;;;;;5105726;27;20013;-64
2022/12/05 14:52:18;;;;;;;;;;;5.50;99.90;;;;;;5108731;28;20353;-64
2022/12/05 14:54:44;;;;;;;;;;;5.50;99.90;;;;;;5117552;27;20340;-64
2022/12/05 14:57:15;;;;;;;;;;;5.50;99.90;;;;;;5107685;27;19928;-64